Time;durP1;ratioP1;P1;durP2;ratioP2;P2;SDS_P1;SDS_P2;PMS_P1;PMS_P2;Temp;Humidity;BMP_temperature;BMP_pressure;BME280_temperature;BME280_humidity;BME280_pressure;Samples;Min_cycle;Max_cycle;Signal;HPM_P1;HPM_P2
2022/09/12 00:00:32;;;;;;;7.50;6.40;;;14.40;99.90;;;;;;5050345;28;20441;-70
2022/09/12 00:03:18;;;;;;;14.00;6.47;;;14.30;99.90;;;;;;5049089;28;20404;-70
2022/09/12 00:06:11;;;;;;;10.83;5.03;;;14.30;99.90;;;;;;5049732;28;20423;-70
2022/09/12 00:09:02;;;;;;;9.10;6.03;;;14.40;99.90;;;;;;5051914;28;20454;-71
2022/09/12 00:11:48;;;;;;;7.30;6.23;;;14.30;99.90;;;;;;5055891;28;20802;-70
2022/09/12 00:14:33;;;;;;;14.70;6.43;;;14.10;99.90;;;;;;5053108;28;20443;-70
2022/09/12 00:17:18;;;;;;;12.33;5.97;;;14.10;99.90;;;;;;5050990;28;20423;-70
2022/09/12 00:20:06;;;;;;;8.63;6.03;;;14.30;99.90;;;;;;5060395;28;20780;-70
2022/09/12 00:22:53;;;;;;;7.73;6.03;;;14.30;99.90;;;;;;5049246;28;20771;-70
2022/09/12 00:25:42;;;;;;;13.73;6.27;;;14.30;99.90;;;;;;5044367;28;20453;-69
2022/09/12 00:28:27;;;;;;;7.13;5.60;;;14.40;99.90;;;;;;5056656;28;20398;-70
2022/09/12 00:31:17;;;;;;;10.13;5.63;;;14.40;99.90;;;;;;5053868;28;20397;-71
2022/09/12 00:34:02;;;;;;;9.80;5.57;;;14.40;99.90;;;;;;5058041;28;20451;-70
2022/09/12 00:36:47;;;;;;;8.73;5.90;;;14.30;99.90;;;;;;5041529;28;20448;-70
2022/09/12 00:39:35;;;;;;;8.30;6.07;;;14.10;99.90;;;;;;5051760;28;21786;-71
2022/09/12 00:42:20;;;;;;;7.27;5.93;;;14.10;99.90;;;;;;5041534;28;20564;-70
2022/09/12 00:45:09;;;;;;;9.80;6.17;;;14.00;99.90;;;;;;5054964;28;20443;-68
2022/09/12 00:47:56;;;;;;;11.37;6.53;;;14.00;99.90;;;;;;5058136;28;20398;-70
2022/09/12 00:50:41;;;;;;;6.90;5.33;;;14.10;99.90;;;;;;5051458;28;20447;-71
2022/09/12 00:53:27;;;;;;;12.53;5.60;;;14.10;99.90;;;;;;5053803;28;20744;-71
2022/09/12 00:56:17;;;;;;;13.83;5.43;;;14.10;99.90;;;;;;5061026;28;20785;-70
2022/09/12 00:59:08;;;;;;;10.03;6.50;;;14.10;99.90;;;;;;5054670;28;20960;-70
2022/09/12 01:01:54;;;;;;;8.40;6.03;;;14.00;99.90;;;;;;5062135;28;20415;-70
2022/09/12 01:04:41;;;;;;;17.37;6.00;;;14.00;99.90;;;;;;5048107;28;20831;-70
2022/09/12 01:07:28;;;;;;;9.87;5.70;;;13.90;99.90;;;;;;5057862;28;20397;-70
2022/09/12 01:10:14;;;;;;;6.13;5.40;;;13.80;99.90;;;;;;5054750;28;20548;-70
2022/09/12 01:13:01;;;;;;;12.20;6.40;;;13.80;99.90;;;;;;5053150;28;20899;-70
2022/09/12 01:15:46;;;;;;;8.90;5.70;;;13.80;99.90;;;;;;5051155;28;20437;-70
2022/09/12 01:18:42;;;;;;;6.43;5.33;;;14.00;99.90;;;;;;5047753;28;20487;-69
2022/09/12 01:21:36;;;;;;;9.80;5.90;;;14.00;99.90;;;;;;5052977;28;20435;-70
2022/09/12 01:24:51;;;;;;;8.73;5.73;;;13.90;99.90;;;;;;5046829;28;20939;-70
2022/09/12 01:28:10;;;;;;;6.40;4.77;;;13.80;99.90;;;;;;5053862;28;20771;-70
2022/09/12 01:31:03;;;;;;;8.10;5.63;;;13.80;99.90;;;;;;5054141;28;20595;-70
2022/09/12 01:34:01;;;;;;;10.20;5.60;;;14.00;99.90;;;;;;5053905;28;20405;-70
2022/09/12 01:36:56;;;;;;;10.33;6.17;;;13.80;99.90;;;;;;5054202;28;20405;-70
2022/09/12 01:39:51;;;;;;;11.30;5.07;;;13.80;99.90;;;;;;5064154;28;20504;-70
2022/09/12 01:42:45;;;;;;;7.43;5.60;;;13.80;99.90;;;;;;5054294;28;20410;-70
2022/09/12 01:45:35;;;;;;;8.70;5.90;;;13.80;99.90;;;;;;5044647;28;20475;-70
2022/09/12 01:48:26;;;;;;;7.10;5.37;;;13.80;99.90;;;;;;5042569;28;20427;-70
2022/09/12 01:51:18;;;;;;;9.63;5.73;;;13.80;99.90;;;;;;5056154;28;20525;-70
2022/09/12 01:54:08;;;;;;;12.77;5.50;;;13.80;99.90;;;;;;5056655;28;20540;-70
2022/09/12 01:56:59;;;;;;;12.23;6.20;;;13.80;99.90;;;;;;5059204;28;20430;-70
2022/09/12 01:59:48;;;;;;;7.70;4.73;;;13.80;99.90;;;;;;5060598;28;20536;-70
2022/09/12 02:02:38;;;;;;;8.23;5.30;;;13.80;99.90;;;;;;5045201;28;20436;-70
2022/09/12 02:05:31;;;;;;;7.40;5.83;;;13.90;99.90;;;;;;5037379;28;20420;-70
2022/09/12 02:08:23;;;;;;;10.87;4.83;;;13.80;99.90;;;;;;5051155;28;20566;-70
2022/09/12 02:11:10;;;;;;;15.83;5.70;;;13.70;99.90;;;;;;5060764;28;20436;-70
2022/09/12 02:14:01;;;;;;;9.30;5.80;;;13.60;99.90;;;;;;5055874;28;20780;-70
2022/09/12 02:16:52;;;;;;;9.17;5.30;;;13.60;99.90;;;;;;5052428;28;20765;-70
2022/09/12 02:19:43;;;;;;;6.90;5.37;;;13.60;99.90;;;;;;5054495;28;20532;-70
2022/09/12 02:22:35;;;;;;;9.40;5.60;;;13.60;99.90;;;;;;5053190;28;20448;-70
2022/09/12 02:25:23;;;;;;;7.63;5.30;;;13.60;99.90;;;;;;5036271;28;20503;-70
2022/09/12 02:28:14;;;;;;;9.70;6.13;;;13.60;99.90;;;;;;5065712;28;21226;-70
2022/09/12 02:31:09;;;;;;;7.20;5.47;;;13.60;99.90;;;;;;5068401;28;20898;-70
2022/09/12 02:34:09;;;;;;;5.70;5.00;;;13.60;99.90;;;;;;5057170;28;20417;-70
2022/09/12 02:37:02;;;;;;;6.60;5.07;;;13.50;99.90;;;;;;5060597;28;20434;-70
2022/09/12 02:39:49;;;;;;;5.97;5.37;;;13.40;99.90;;;;;;5062245;28;20927;-70
2022/09/12 02:42:35;;;;;;;9.27;4.93;;;13.40;99.90;;;;;;5060875;28;20414;-70
2022/09/12 02:45:22;;;;;;;9.03;5.30;;;13.40;99.90;;;;;;5057169;28;20922;-70
2022/09/12 02:48:12;;;;;;;8.97;5.80;;;13.40;99.90;;;;;;5056509;28;20548;-70
2022/09/12 02:50:58;;;;;;;8.07;5.60;;;13.50;99.90;;;;;;5052763;28;20423;-70
2022/09/12 02:53:44;;;;;;;6.27;5.07;;;13.50;99.90;;;;;;5047030;28;20792;-69
2022/09/12 02:56:31;;;;;;;7.33;5.30;;;13.40;99.90;;;;;;5057460;28;20430;-70
2022/09/12 02:59:19;;;;;;;11.93;5.83;;;13.40;99.90;;;;;;5052538;28;20444;-70
2022/09/12 03:02:23;;;;;;;9.87;5.20;;;13.40;99.90;;;;;;5060250;28;20428;-70
2022/09/12 03:05:30;;;;;;;9.33;5.70;;;13.40;99.90;;;;;;5050087;28;20514;-70
2022/09/12 03:08:39;;;;;;;12.40;5.63;;;13.40;99.90;;;;;;5056324;28;20417;-70
2022/09/12 03:11:51;;;;;;;7.77;4.60;;;13.20;99.90;;;;;;5056780;28;20853;-70
2022/09/12 03:14:49;;;;;;;8.50;6.20;;;13.10;99.90;;;;;;5042982;28;20825;-70
2022/09/12 03:17:46;;;;;;;8.57;6.27;;;13.00;99.90;;;;;;5054306;28;20427;-70
2022/09/12 03:20:44;;;;;;;10.50;7.33;;;13.10;99.90;;;;;;5048082;28;20501;-70
2022/09/12 03:23:34;;;;;;;42.30;8.57;;;13.10;99.90;;;;;;5054521;28;20413;-70
2022/09/12 03:26:27;;;;;;;38.63;8.10;;;13.20;99.90;;;;;;5056255;28;20427;-71
2022/09/12 03:29:16;;;;;;;11.00;6.83;;;13.20;99.90;;;;;;5062312;28;20414;-70
2022/09/12 03:32:01;;;;;;;14.00;8.83;;;13.20;99.90;;;;;;5067178;28;20427;-70
2022/09/12 03:34:47;;;;;;;26.07;7.47;;;13.30;99.90;;;;;;5045669;28;20450;-70
2022/09/12 03:37:33;;;;;;;26.67;8.00;;;13.30;99.90;;;;;;5049683;28;20794;-70
2022/09/12 03:40:19;;;;;;;7.37;6.57;;;13.30;99.90;;;;;;5051859;28;20440;-70
2022/09/12 03:43:06;;;;;;;8.90;7.07;;;13.30;99.90;;;;;;5049814;28;20500;-69
2022/09/12 03:45:53;;;;;;;8.87;6.50;;;13.30;99.90;;;;;;5042722;28;20481;-70
2022/09/12 03:48:38;;;;;;;7.33;6.00;;;13.30;99.90;;;;;;5061709;28;20416;-70
2022/09/12 03:51:24;;;;;;;9.17;7.17;;;13.30;99.90;;;;;;5055211;28;21071;-70
2022/09/12 03:54:10;;;;;;;13.20;6.23;;;13.30;99.90;;;;;;5045318;28;20461;-69
2022/09/12 03:56:56;;;;;;;9.47;6.77;;;13.30;99.90;;;;;;5064524;28;20409;-70
2022/09/12 03:59:41;;;;;;;7.27;5.83;;;13.20;99.90;;;;;;5049907;28;20447;-70
2022/09/12 04:02:29;;;;;;;8.00;5.90;;;13.10;99.90;;;;;;5055751;28;20798;-69
2022/09/12 04:05:15;;;;;;;13.13;6.17;;;13.00;99.90;;;;;;5059525;28;20529;-69
2022/09/12 04:08:00;;;;;;;6.03;5.43;;;12.90;99.90;;;;;;5060533;28;20944;-70
2022/09/12 04:10:46;;;;;;;7.43;5.30;;;13.00;99.90;;;;;;5048184;28;20477;-70
2022/09/12 04:13:32;;;;;;;6.00;5.40;;;13.00;99.90;;;;;;5043365;28;20824;-69
2022/09/12 04:16:18;;;;;;;9.30;5.73;;;13.10;99.90;;;;;;5044747;28;20629;-70
2022/09/12 04:19:05;;;;;;;7.00;6.03;;;13.20;99.90;;;;;;5058130;28;20535;-69
2022/09/12 04:21:50;;;;;;;6.60;5.63;;;13.20;99.90;;;;;;5098860;22;20489;-73
2022/09/12 04:24:36;;;;;;;11.20;6.10;;;13.10;99.90;;;;;;5091100;28;20408;-73
2022/09/12 04:27:22;;;;;;;5.53;5.00;;;13.10;99.90;;;;;;5083340;28;20811;-73
2022/09/12 04:30:09;;;;;;;17.03;6.40;;;13.10;99.90;;;;;;5092408;28;20442;-73
2022/09/12 04:32:54;;;;;;;18.57;6.60;;;13.10;99.90;;;;;;5082069;28;20463;-73
2022/09/12 04:35:41;;;;;;;6.43;5.60;;;13.10;99.90;;;;;;5084484;28;20491;-73
2022/09/12 04:38:27;;;;;;;10.63;6.87;;;13.20;99.90;;;;;;5088575;28;20425;-73
2022/09/12 04:41:14;;;;;;;17.33;7.60;;;13.20;99.90;;;;;;5092446;28;20431;-73
2022/09/12 04:44:02;;;;;;;11.87;7.37;;;13.30;99.90;;;;;;5077812;28;20417;-73
2022/09/12 04:46:48;;;;;;;150.20;10.20;;;13.20;99.90;;;;;;5091600;28;20425;-73
2022/09/12 04:49:33;;;;;;;14.23;9.23;;;13.20;99.90;;;;;;5091837;28;20488;-73
2022/09/12 04:52:20;;;;;;;19.27;7.70;;;13.10;99.90;;;;;;5078921;28;20575;-73
2022/09/12 04:55:07;;;;;;;12.17;8.37;;;13.20;99.90;;;;;;5080257;28;20394;-73
2022/09/12 04:57:52;;;;;;;37.27;8.87;;;13.20;99.90;;;;;;5092160;28;20430;-73
2022/09/12 05:00:38;;;;;;;49.03;7.43;;;13.20;99.90;;;;;;5091725;28;20476;-73
2022/09/12 05:03:24;;;;;;;13.23;6.70;;;13.10;99.90;;;;;;5086670;28;20446;-73
2022/09/12 05:06:11;;;;;;;7.00;5.90;;;13.00;99.90;;;;;;5090912;28;20430;-73
2022/09/12 05:08:59;;;;;;;17.50;5.90;;;13.00;99.90;;;;;;5086811;28;20796;-73
2022/09/12 05:11:45;;;;;;;6.43;5.77;;;13.10;99.90;;;;;;5082853;28;20569;-73
2022/09/12 05:14:31;;;;;;;8.50;5.87;;;13.10;99.90;;;;;;5084193;28;20437;-73
2022/09/12 05:17:17;;;;;;;7.60;6.80;;;13.20;99.90;;;;;;5080021;28;20782;-73
2022/09/12 05:20:03;;;;;;;6.93;5.77;;;13.20;99.90;;;;;;5089622;28;20473;-73
2022/09/12 05:22:49;;;;;;;9.67;6.10;;;13.30;99.90;;;;;;5085478;28;20445;-73
2022/09/12 05:25:36;;;;;;;19.80;6.87;;;13.30;99.90;;;;;;5079234;28;20569;-73
2022/09/12 05:28:22;;;;;;;10.00;6.30;;;13.30;99.90;;;;;;5081585;28;20422;-73
2022/09/12 05:31:11;;;;;;;6.90;5.70;;;13.20;99.90;;;;;;5089110;28;20425;-72
2022/09/12 05:33:57;;;;;;;22.83;5.40;;;13.20;99.90;;;;;;5085786;28;20753;-73
2022/09/12 05:36:43;;;;;;;7.07;6.30;;;13.20;99.90;;;;;;5085674;28;20400;-73
2022/09/12 05:39:28;;;;;;;11.03;6.33;;;13.20;99.90;;;;;;5085110;28;20487;-72
2022/09/12 05:42:15;;;;;;;13.30;6.33;;;13.30;99.90;;;;;;5089278;28;20817;-73
2022/09/12 05:45:01;;;;;;;8.60;6.10;;;13.30;99.90;;;;;;5090626;28;20401;-73
2022/09/12 05:47:47;;;;;;;8.77;6.73;;;13.30;99.90;;;;;;5090963;28;20835;-73
2022/09/12 05:50:32;;;;;;;16.17;7.40;;;13.30;99.90;;;;;;5085872;28;20441;-73
2022/09/12 05:53:18;;;;;;;8.50;7.50;;;13.40;99.90;;;;;;5082675;28;20446;-73
2022/09/12 05:56:09;;;;;;;8.40;7.30;;;13.50;99.90;;;;;;5089733;28;20408;-73
2022/09/12 05:58:58;;;;;;;8.70;7.33;;;13.50;99.90;;;;;;5084342;28;20430;-74
2022/09/12 06:01:45;;;;;;;7.97;6.77;;;13.50;99.90;;;;;;5089654;28;20462;-73
2022/09/12 06:04:30;;;;;;;13.57;7.20;;;13.60;99.90;;;;;;5096441;28;20399;-73
2022/09/12 06:07:16;;;;;;;7.90;6.03;;;13.60;99.90;;;;;;5091409;28;20428;-73
2022/09/12 06:10:02;;;;;;;7.57;6.10;;;13.70;99.90;;;;;;5095299;28;20416;-74
2022/09/12 06:12:47;;;;;;;16.70;7.27;;;13.80;99.90;;;;;;5096776;28;20441;-73
2022/09/12 06:15:35;;;;;;;7.40;5.90;;;13.80;99.90;;;;;;5089974;28;20405;-73
2022/09/12 06:18:20;;;;;;;5.50;4.90;;;13.90;99.90;;;;;;5095829;28;20430;-73
2022/09/12 06:21:08;;;;;;;6.67;5.97;;;14.00;99.90;;;;;;5093301;28;20991;-73
2022/09/12 06:23:54;;;;;;;7.47;6.13;;;14.00;99.90;;;;;;5092411;28;20462;-73
2022/09/12 06:26:40;;;;;;;12.73;6.20;;;14.10;99.90;;;;;;5097646;28;20404;-73
2022/09/12 06:29:26;;;;;;;12.00;5.70;;;14.10;99.90;;;;;;5088663;28;20425;-73
2022/09/12 06:32:13;;;;;;;9.00;6.67;;;14.10;99.90;;;;;;5093033;28;20415;-73
2022/09/12 06:34:58;;;;;;;6.30;5.60;;;14.20;99.90;;;;;;5094864;28;20425;-73
2022/09/12 06:37:44;;;;;;;8.40;5.60;;;14.20;99.90;;;;;;5092564;28;20766;-73
2022/09/12 06:40:30;;;;;;;7.67;6.67;;;14.20;99.90;;;;;;5093418;28;20516;-73
2022/09/12 06:43:15;;;;;;;10.77;5.47;;;14.20;99.90;;;;;;5088640;28;20917;-73
2022/09/12 06:46:02;;;;;;;14.80;6.93;;;14.20;99.90;;;;;;5096564;28;20556;-73
2022/09/12 06:48:49;;;;;;;10.10;7.53;;;14.20;99.90;;;;;;5086727;28;20761;-73
2022/09/12 06:51:35;;;;;;;8.80;6.83;;;14.40;99.90;;;;;;5093308;28;20443;-73
2022/09/12 06:54:22;;;;;;;8.20;6.90;;;14.50;99.90;;;;;;5091140;28;20771;-73
2022/09/12 06:57:07;;;;;;;8.87;7.13;;;14.60;99.90;;;;;;5092874;28;20440;-73
2022/09/12 06:59:53;;;;;;;15.13;7.70;;;14.70;99.90;;;;;;5094734;28;20584;-73
2022/09/12 07:02:39;;;;;;;8.80;7.27;;;14.80;99.90;;;;;;5087923;28;20526;-73
2022/09/12 07:05:26;;;;;;;11.57;8.00;;;14.90;99.90;;;;;;5085406;28;20967;-73
2022/09/12 07:08:12;;;;;;;8.00;7.20;;;15.00;99.90;;;;;;5096669;28;20925;-73
2022/09/12 07:10:59;;;;;;;10.83;8.23;;;15.00;99.90;;;;;;5091036;28;20461;-73
2022/09/12 07:13:47;;;;;;;10.93;8.43;;;15.10;99.90;;;;;;5083149;28;20401;-73
2022/09/12 07:16:34;;;;;;;10.03;8.37;;;15.10;99.90;;;;;;5087404;28;20474;-73
2022/09/12 07:19:20;;;;;;;12.90;8.53;;;15.30;99.90;;;;;;5083784;28;20445;-73
2022/09/12 07:22:07;;;;;;;10.90;8.27;;;15.40;99.90;;;;;;5093235;28;20404;-73
2022/09/12 07:24:54;;;;;;;10.47;8.80;;;15.60;99.90;;;;;;5092021;28;20845;-73
2022/09/12 07:27:40;;;;;;;14.83;9.60;;;15.70;99.90;;;;;;5086172;28;21089;-73
2022/09/12 07:30:26;;;;;;;11.70;9.67;;;15.80;99.90;;;;;;5083658;28;20547;-73
2022/09/12 07:33:11;;;;;;;15.50;9.00;;;15.90;99.90;;;;;;5093587;28;20417;-73
2022/09/12 07:36:01;;;;;;;11.83;9.10;;;16.10;99.90;;;;;;5082190;28;20430;-73
2022/09/12 07:38:48;;;;;;;15.60;8.37;;;16.10;99.90;;;;;;5092522;28;20503;-73
2022/09/12 07:41:34;;;;;;;12.37;7.90;;;16.20;99.90;;;;;;5090707;28;20562;-73
2022/09/12 07:44:20;;;;;;;11.70;9.10;;;16.30;99.90;;;;;;5086924;28;20805;-73
2022/09/12 07:47:06;;;;;;;13.90;8.10;;;16.40;99.90;;;;;;5091893;28;20396;-73
2022/09/12 07:49:52;;;;;;;12.00;9.40;;;16.60;99.90;;;;;;5089794;28;20472;-73
2022/09/12 07:52:37;;;;;;;9.80;8.60;;;16.70;99.90;;;;;;5086978;28;20455;-74
2022/09/12 07:55:24;;;;;;;14.40;8.60;;;16.80;99.90;;;;;;5086118;28;20789;-74
2022/09/12 07:58:11;;;;;;;15.60;9.50;;;16.90;99.90;;;;;;5083713;28;20416;-73
2022/09/12 08:01:02;;;;;;;10.40;8.23;;;17.00;99.90;;;;;;5090128;28;20456;-73
2022/09/12 08:03:52;;;;;;;17.97;11.80;;;17.10;99.90;;;;;;5083353;28;20561;-73
2022/09/12 08:06:38;;;;;;;10.70;9.03;;;17.30;99.90;;;;;;5092904;28;20404;-73
2022/09/12 08:09:24;;;;;;;15.13;8.67;;;17.30;99.90;;;;;;5088080;28;20448;-73
2022/09/12 08:12:11;;;;;;;12.77;9.07;;;17.40;99.90;;;;;;5090860;28;20464;-73
2022/09/12 08:14:56;;;;;;;13.83;9.53;;;17.60;99.90;;;;;;5091825;28;21020;-73
2022/09/12 08:17:42;;;;;;;12.60;9.30;;;17.70;99.90;;;;;;5085281;28;20404;-73
2022/09/12 08:20:28;;;;;;;18.40;9.60;;;17.80;99.90;;;;;;5087777;28;20798;-73
2022/09/12 08:23:14;;;;;;;9.90;8.40;;;17.90;99.90;;;;;;5092437;28;20414;-73
2022/09/12 08:26:02;;;;;;;11.53;9.50;;;18.00;99.90;;;;;;5087739;28;20421;-73
2022/09/12 08:28:48;;;;;;;12.87;8.47;;;18.20;99.90;;;;;;5089498;28;20417;-73
2022/09/12 08:31:35;;;;;;;11.90;8.47;;;18.30;99.90;;;;;;5091491;28;20437;-73
2022/09/12 08:34:21;;;;;;;14.40;8.80;;;18.40;99.90;;;;;;5084194;28;20430;-73
2022/09/12 08:37:07;;;;;;;12.13;9.10;;;18.40;99.90;;;;;;5091446;28;20446;-73
2022/09/12 08:39:52;;;;;;;12.87;9.50;;;18.30;99.90;;;;;;5089972;28;20449;-73
2022/09/12 08:42:51;;;;;;;11.30;8.43;;;18.40;99.90;;;;;;5092005;28;20437;-73
2022/09/12 08:45:47;;;;;;;14.57;9.10;;;18.40;99.90;;;;;;5082291;28;20401;-73
2022/09/12 08:48:33;;;;;;;11.30;8.50;;;18.60;99.90;;;;;;5088868;28;20421;-73
2022/09/12 08:51:20;;;;;;;10.13;8.10;;;18.70;99.90;;;;;;5087696;28;20578;-73
2022/09/12 08:54:18;;;;;;;8.40;7.30;;;18.90;99.90;;;;;;5090822;28;20430;-73
2022/09/12 08:57:06;;;;;;;16.37;8.70;;;19.00;99.90;;;;;;5082281;28;20943;-73
2022/09/12 08:59:52;;;;;;;9.37;7.60;;;19.20;99.90;;;;;;5087606;28;20428;-73
2022/09/12 09:03:00;;;;;;;10.20;7.77;;;19.30;99.90;;;;;;5089699;28;20561;-73
2022/09/12 09:05:51;;;;;;;10.00;7.30;;;19.40;99.90;;;;;;5087555;28;20931;-73
2022/09/12 09:08:47;;;;;;;9.30;7.33;;;19.50;99.90;;;;;;5087969;28;20425;-73
2022/09/12 09:11:47;;;;;;;8.70;7.20;;;19.60;99.90;;;;;;5080439;28;20442;-74
2022/09/12 09:14:57;;;;;;;8.63;7.43;;;19.70;99.90;;;;;;5084784;28;20402;-74
2022/09/12 09:17:48;;;;;;;7.63;6.73;;;19.80;99.90;;;;;;5075885;28;20405;-73
2022/09/12 09:20:40;;;;;;;8.17;6.60;;;19.90;99.90;;;;;;5091446;28;20842;-73
2022/09/12 09:23:29;;;;;;;8.53;6.33;;;20.10;99.90;;;;;;5089735;28;20441;-73
2022/09/12 09:26:25;;;;;;;7.70;6.47;;;20.20;99.90;;;;;;5082512;28;20426;-74
2022/09/12 09:29:16;;;;;;;7.37;5.90;;;20.40;99.90;;;;;;5086529;28;20898;-74
2022/09/12 09:32:10;;;;;;;7.17;6.03;;;20.50;99.90;;;;;;5089522;28;20834;-73
2022/09/12 09:34:59;;;;;;;6.20;5.50;;;20.60;99.90;;;;;;5087930;28;20535;-73
2022/09/12 09:37:58;;;;;;;6.80;5.57;;;20.80;99.90;;;;;;5086904;28;20417;-73
2022/09/12 09:40:51;;;;;;;8.03;5.57;;;20.80;99.90;;;;;;5086468;28;20455;-73
2022/09/12 09:43:38;;;;;;;6.13;5.50;;;20.90;99.90;;;;;;5084611;28;20488;-73
2022/09/12 09:46:24;;;;;;;5.93;5.33;;;20.90;99.90;;;;;;5088526;28;20523;-73
2022/09/12 09:49:14;;;;;;;10.03;5.50;;;21.00;99.90;;;;;;5087541;28;20465;-74
2022/09/12 09:52:02;;;;;;;6.73;6.00;;;21.00;99.90;;;;;;5091267;28;20441;-74
2022/09/12 09:54:53;;;;;;;7.30;4.80;;;21.20;99.90;;;;;;5089127;28;20988;-73
2022/09/12 09:57:45;;;;;;;7.37;5.27;;;21.30;99.90;;;;;;5084761;28;20455;-73
2022/09/12 10:00:32;;;;;;;6.70;5.60;;;21.40;99.90;;;;;;5084988;28;20412;-73
2022/09/12 10:03:34;;;;;;;5.60;5.10;;;21.50;99.90;;;;;;5089897;28;20442;-74
2022/09/12 10:06:31;;;;;;;4.63;4.13;;;21.40;98.10;;;;;;5084088;28;20782;-74
2022/09/12 10:09:24;;;;;;;6.70;5.53;;;21.50;99.60;;;;;;5088560;28;20962;-73
2022/09/12 10:12:21;;;;;;;8.83;4.87;;;21.60;99.90;;;;;;5085225;28;20500;-74
2022/09/12 10:15:17;;;;;;;6.63;4.77;;;21.80;99.30;;;;;;5090224;28;20539;-73
2022/09/12 10:18:03;;;;;;;5.50;4.80;;;21.90;94.30;;;;;;5086216;28;20457;-74
2022/09/12 10:20:49;;;;;;;6.03;4.90;;;21.90;92.90;;;;;;5090886;28;20551;-73
2022/09/12 10:23:39;;;;;;;6.10;4.20;;;22.00;94.60;;;;;;5084600;28;20445;-75
2022/09/12 10:26:31;;;;;;;6.73;5.30;;;22.00;92.70;;;;;;5078225;28;20959;-75
2022/09/12 10:29:21;;;;;;;4.80;4.30;;;22.00;94.30;;;;;;5084833;28;20565;-75
2022/09/12 10:32:08;;;;;;;8.43;5.20;;;22.00;90.00;;;;;;5087575;28;20741;-75
2022/09/12 10:34:58;;;;;;;5.73;4.57;;;22.00;91.70;;;;;;5087687;28;20417;-76
2022/09/12 10:37:53;;;;;;;5.80;5.20;;;22.00;91.40;;;;;;5083619;28;20467;-75
2022/09/12 10:40:42;;;;;;;5.50;4.90;;;22.20;92.60;;;;;;5086848;28;20830;-75
2022/09/12 10:43:34;;;;;;;7.70;5.30;;;22.20;78.90;;;;;;5090457;28;20401;-75
2022/09/12 10:46:31;;;;;;;4.73;4.23;;;22.30;82.00;;;;;;5087575;28;20422;-75
2022/09/12 10:49:26;;;;;;;5.80;4.37;;;22.50;80.30;;;;;;5094691;28;20779;-75
2022/09/12 10:52:21;;;;;;;6.77;5.17;;;22.60;82.00;;;;;;5091255;28;20404;-75
2022/09/12 10:55:14;;;;;;;7.27;5.20;;;22.60;82.10;;;;;;5086156;28;20401;-75
2022/09/12 10:58:28;;;;;;;9.17;6.53;;;22.70;84.60;;;;;;5092194;28;20424;-75
2022/09/12 11:01:24;;;;;;;7.90;5.43;;;22.80;82.90;;;;;;5093459;28;20462;-75
2022/09/12 11:04:29;;;;;;;5.70;4.10;;;22.80;81.30;;;;;;5092778;28;20404;-76
2022/09/12 11:07:35;;;;;;;5.10;4.50;;;22.80;64.40;;;;;;5091143;28;20957;-74
2022/09/12 11:10:29;;;;;;;6.73;3.30;;;23.00;65.00;;;;;;5091229;28;20442;-75
2022/09/12 11:13:26;;;;;;;4.73;4.10;;;23.10;63.60;;;;;;5090891;28;20442;-75
2022/09/12 11:16:23;;;;;;;4.70;4.13;;;23.10;67.00;;;;;;5092012;28;20897;-73
2022/09/12 11:19:30;;;;;;;5.30;4.07;;;23.20;65.20;;;;;;5084515;28;20792;-74
2022/09/12 11:22:34;;;;;;;6.90;4.40;;;23.30;64.40;;;;;;5083413;28;20474;-75
2022/09/12 11:25:28;;;;;;;5.20;4.07;;;23.40;67.70;;;;;;5085885;28;20491;-76
2022/09/12 11:28:28;;;;;;;5.60;4.33;;;23.60;66.80;;;;;;5088513;28;20808;-75
2022/09/12 11:31:39;;;;;;;5.63;5.00;;;23.60;63.20;;;;;;5086369;28;20583;-75
2022/09/12 11:34:34;;;;;;;5.40;4.07;;;23.60;61.70;;;;;;5081657;28;21060;-73
2022/09/12 11:37:37;;;;;;;5.00;3.73;;;23.60;57.60;;;;;;5081313;28;20505;-75
2022/09/12 11:40:32;;;;;;;3.87;3.47;;;23.70;60.00;;;;;;5086316;28;20428;-74
2022/09/12 11:43:28;;;;;;;3.87;3.47;;;23.90;60.30;;;;;;5093386;28;20426;-75
2022/09/12 11:46:21;;;;;;;5.00;3.73;;;24.00;62.30;;;;;;5089522;28;20443;-76
2022/09/12 11:49:19;;;;;;;8.30;4.47;;;24.10;59.60;;;;;;5089259;28;20903;-76
2022/09/12 11:52:13;;;;;;;4.57;3.97;;;24.20;62.00;;;;;;5090621;28;20469;-75
2022/09/12 11:55:03;;;;;;;4.57;3.70;;;24.40;63.10;;;;;;5085829;28;20900;-75
2022/09/12 11:57:53;;;;;;;4.63;3.40;;;24.30;48.70;;;;;;5082007;28;20469;-75
2022/09/12 12:00:44;;;;;;;6.07;3.50;;;24.30;54.70;;;;;;5093049;28;20450;-75
2022/09/12 12:03:35;;;;;;;4.50;3.70;;;24.40;53.80;;;;;;5080614;28;20439;-73
2022/09/12 12:06:30;;;;;;;4.10;3.67;;;24.50;47.90;;;;;;5090224;28;20445;-75
2022/09/12 12:09:16;;;;;;;4.50;3.70;;;24.70;53.70;;;;;;5092782;28;20457;-75
2022/09/12 12:12:07;;;;;;;5.90;3.80;;;24.70;44.60;;;;;;5089344;28;20416;-76
2022/09/12 12:14:55;;;;;;;5.00;3.50;;;24.70;44.60;;;;;;5088829;28;20430;-74
2022/09/12 12:17:41;;;;;;;4.63;3.87;;;24.80;45.90;;;;;;5084183;28;20513;-75
2022/09/12 12:20:27;;;;;;;4.37;3.40;;;24.80;45.80;;;;;;5085835;28;20456;-75
2022/09/12 12:23:29;;;;;;;3.43;3.13;;;24.80;44.70;;;;;;5092558;28;20835;-76
2022/09/12 12:26:44;;;;;;;4.57;3.60;;;24.70;45.50;;;;;;5088133;28;20444;-75
2022/09/12 12:29:47;;;;;;;8.37;3.47;;;24.90;42.70;;;;;;5085835;28;20509;-76
2022/09/12 12:32:33;;;;;;;5.07;3.17;;;25.00;39.90;;;;;;5090421;28;20499;-75
2022/09/12 12:35:39;;;;;;;3.90;3.20;;;25.20;44.20;;;;;;5077874;28;20400;-76
2022/09/12 12:38:30;;;;;;;3.90;3.33;;;25.50;38.70;;;;;;5091177;28;20429;-76
2022/09/12 12:41:44;;;;;;;4.83;3.00;;;25.70;39.20;;;;;;5087356;28;20442;-75
2022/09/12 12:44:51;;;;;;;5.23;3.00;;;25.80;41.50;;;;;;5085440;28;20430;-75
2022/09/12 12:47:42;;;;;;;3.93;3.20;;;26.00;39.10;;;;;;5086886;28;20441;-75
2022/09/12 12:50:31;;;;;;;4.90;3.10;;;26.10;38.70;;;;;;5090659;28;20815;-75
2022/09/12 12:53:23;;;;;;;4.63;3.30;;;26.20;33.10;;;;;;5086650;28;20425;-76
2022/09/12 12:56:27;;;;;;;3.20;2.83;;;26.20;35.90;;;;;;5084485;28;20446;-76
2022/09/12 12:59:17;;;;;;;3.07;2.57;;;26.40;33.40;;;;;;5085648;28;20433;-76
2022/09/12 13:02:04;;;;;;;3.80;3.40;;;26.10;31.50;;;;;;5090995;28;20476;-76
2022/09/12 13:04:51;;;;;;;4.63;2.87;;;26.30;32.90;;;;;;5081953;28;20563;-74
2022/09/12 13:07:40;;;;;;;3.00;2.20;;;26.30;30.30;;;;;;5087220;28;20965;-76
2022/09/12 13:10:28;;;;;;;3.57;2.90;;;26.50;32.40;;;;;;5083259;28;20437;-77
2022/09/12 13:13:25;;;;;;;7.23;2.57;;;26.90;32.70;;;;;;5088321;28;20462;-72
2022/09/12 13:16:11;;;;;;;3.47;2.40;;;27.10;33.80;;;;;;5085373;28;20453;-76
2022/09/12 13:19:02;;;;;;;3.50;2.80;;;27.00;30.50;;;;;;5086739;28;20485;-76
2022/09/12 13:21:55;;;;;;;3.23;2.50;;;27.10;31.50;;;;;;5085761;28;20470;-76
2022/09/12 13:24:43;;;;;;;4.57;2.50;;;27.30;27.90;;;;;;5078561;28;20552;-75
2022/09/12 13:27:30;;;;;;;2.77;2.03;;;27.40;28.20;;;;;;5089665;28;20466;-75
2022/09/12 13:30:17;;;;;;;3.83;2.43;;;27.50;27.20;;;;;;5087117;28;20461;-76
2022/09/12 13:33:20;;;;;;;3.00;2.50;;;27.50;28.20;;;;;;5089031;28;20497;-76
2022/09/12 13:36:56;;;;;;;3.73;2.30;;;27.60;27.90;;;;;;5084691;28;20465;-75
2022/09/12 13:39:48;;;;;;;3.00;2.27;;;27.70;26.90;;;;;;5079633;28;20442;-76
2022/09/12 13:42:39;;;;;;;4.90;2.33;;;27.90;27.80;;;;;;5084859;28;20481;-76
2022/09/12 13:45:27;;;;;;;3.57;1.90;;;27.90;26.70;;;;;;5078417;28;20509;-76
2022/09/12 13:48:16;;;;;;;2.70;1.90;;;28.10;26.90;;;;;;5090996;28;20503;-76
2022/09/12 13:51:04;;;;;;;3.73;2.20;;;28.20;25.50;;;;;;5077153;28;20531;-76
2022/09/12 13:53:51;;;;;;;5.83;2.40;;;28.30;25.40;;;;;;5087745;28;20425;-75
2022/09/12 13:56:47;;;;;;;4.67;2.70;;;28.20;25.40;;;;;;5087326;28;20468;-74
2022/09/12 13:59:38;;;;;;;2.83;1.87;;;28.00;23.10;;;;;;5084403;28;20457;-75
2022/09/12 14:02:27;;;;;;;3.90;2.20;;;27.50;22.50;;;;;;5084607;28;20470;-76
2022/09/12 14:05:19;;;;;;;4.40;2.00;;;27.50;24.20;;;;;;5086945;28;20449;-75
2022/09/12 14:08:07;;;;;;;2.90;1.87;;;27.70;24.60;;;;;;5090571;28;20479;-75
2022/09/12 14:10:53;;;;;;;2.77;1.90;;;27.80;25.30;;;;;;5083161;28;21014;-75
2022/09/12 14:13:39;;;;;;;3.20;2.20;;;28.00;26.30;;;;;;5082972;28;20934;-75
2022/09/12 14:16:27;;;;;;;2.37;1.73;;;28.10;25.30;;;;;;5078714;28;20426;-75
2022/09/12 14:19:16;;;;;;;3.30;2.10;;;28.00;24.50;;;;;;5090557;28;20417;-75
2022/09/12 14:22:01;;;;;;;2.87;1.83;;;27.80;23.50;;;;;;5086504;28;20821;-75
2022/09/12 14:24:50;;;;;;;4.63;2.33;;;27.70;22.40;;;;;;5085734;28;20589;-75
2022/09/12 14:27:44;;;;;;;2.47;1.57;;;27.40;22.60;;;;;;5089519;28;20421;-74
2022/09/12 14:30:31;;;;;;;2.83;2.23;;;27.30;24.80;;;;;;5087998;28;20441;-75
2022/09/12 14:33:20;;;;;;;3.93;2.10;;;27.60;24.10;;;;;;5078702;28;20422;-75
2022/09/12 14:36:15;;;;;;;2.80;2.03;;;27.70;25.20;;;;;;5094596;28;20425;-75
2022/09/12 14:39:04;;;;;;;2.23;1.40;;;27.90;23.70;;;;;;5084933;28;20430;-74
2022/09/12 14:41:51;;;;;;;3.40;1.90;;;27.90;25.90;;;;;;5094719;28;20445;-72